createdAt,value
2023-12-23T00:00:56.911Z,2.279
2023-12-23T00:05:53.265Z,3.2
2023-12-23T00:10:56.002Z,8.524
2023-12-23T00:15:54.387Z,3.682
2023-12-23T00:20:54.646Z,5.82
2023-12-23T00:25:51.039Z,2.111
2023-12-23T00:30:55.049Z,3.362
2023-12-23T00:35:51.189Z,3.064
2023-12-23T00:40:57.904Z,5.208
2023-12-23T00:45:54.155Z,2.144
2023-12-23T00:50:50.826Z,0.812
2023-12-23T00:55:53.045Z,2.956
2023-12-23T01:00:52.684Z,0.649
2023-12-23T01:05:50.742Z,0.297
2023-12-23T01:10:53.023Z,0.487
2023-12-23T01:15:49.064Z,1.168
2023-12-23T01:20:52.237Z,0.459
2023-12-23T01:25:53.142Z,0.893
2023-12-23T01:30:54.021Z,2.961
2023-12-23T01:35:52.275Z,3.913
2023-12-23T01:40:53.515Z,1.624
2023-12-23T01:45:52.737Z,5.767
2023-12-23T01:50:54.003Z,2.961
2023-12-23T01:55:55.090Z,1.954
2023-12-23T02:00:51.229Z,2.685
2023-12-23T02:05:52.245Z,2.522
2023-12-23T02:10:52.333Z,1.332
2023-12-23T02:15:51.264Z,1.299
2023-12-23T02:20:54.861Z,0.649
2023-12-23T02:25:55.173Z,0.784
2023-12-23T02:30:54.659Z,0.649
2023-12-23T02:35:51.486Z,0.978
2023-12-23T02:40:51.027Z,0.649
2023-12-23T02:45:53.879Z,0
2023-12-23T02:50:51.311Z,1.109
2023-12-23T02:55:53.153Z,0.843
2023-12-23T03:00:54.042Z,0
2023-12-23T03:05:51.356Z,0.649
2023-12-23T03:10:50.530Z,0.324
2023-12-23T03:15:53.745Z,0.324
2023-12-23T03:20:56.855Z,0
2023-12-23T03:25:51.185Z,0
2023-12-23T03:30:58.272Z,0
2023-12-23T03:36:00.805Z,0.324
2023-12-23T03:40:59.709Z,0
2023-12-23T03:45:59.544Z,0
2023-12-23T03:50:57.962Z,0.162
2023-12-23T03:55:57.426Z,0.324
2023-12-23T04:00:56.351Z,0
2023-12-23T04:05:54.549Z,0
2023-12-23T04:11:03.943Z,0.162
2023-12-23T04:15:59.430Z,0.162
2023-12-23T04:21:02.294Z,0.162
2023-12-23T04:25:59.934Z,8.613
2023-12-23T04:31:01.912Z,1.276
2023-12-23T04:36:00.938Z,1.401
2023-12-23T04:41:00.433Z,0.649
2023-12-23T04:45:59.656Z,0
2023-12-23T04:50:59.787Z,0.907
2023-12-23T04:56:03.698Z,0.162
2023-12-23T05:01:02.656Z,1.303
2023-12-23T05:05:58.040Z,0.978
2023-12-23T05:10:57.475Z,0.649
2023-12-23T05:15:50.441Z,0.162
2023-12-23T05:20:52.219Z,0.324
2023-12-23T05:25:53.893Z,1.006
2023-12-23T05:30:53.502Z,0.162
2023-12-23T05:35:52.775Z,0.162
2023-12-23T05:40:52.563Z,0
2023-12-23T05:45:51.916Z,0.324
2023-12-23T05:50:52.053Z,0.324
2023-12-23T05:56:00.981Z,0.162
2023-12-23T06:00:52.942Z,0.162
2023-12-23T06:05:57.670Z,0.162
2023-12-23T06:11:07.862Z,0.162
2023-12-23T06:15:53.226Z,0
2023-12-23T06:20:54.520Z,0.356
2023-12-23T06:25:54.142Z,0.487
2023-12-23T06:30:52.686Z,1.569
2023-12-23T06:35:53.911Z,0.487
2023-12-23T06:40:56.910Z,2.761
2023-12-23T06:45:53.731Z,3.168
2023-12-23T06:50:56.335Z,2.668
2023-12-23T06:56:01.787Z,1.38
2023-12-23T07:01:01.280Z,3.838
2023-12-23T07:05:59.587Z,3.875
2023-12-23T07:10:59.326Z,4.829
2023-12-23T07:16:00.465Z,3.087
2023-12-23T07:21:14.086Z,3.2
2023-12-23T07:26:04.609Z,2.955
2023-12-23T07:36:00.139Z,2.505
2023-12-23T07:41:07.517Z,4.468
2023-12-23T07:46:08.628Z,3.805
2023-12-23T07:56:09.622Z,4.136
2023-12-23T10:55:55.928Z,1.558
2023-12-23T11:00:54.904Z,0.812
2023-12-23T11:05:56.998Z,3.253
2023-12-23T11:10:59.078Z,25.84
2023-12-23T11:15:58.493Z,22.824
2023-12-23T11:20:57.708Z,23.647
2023-12-23T11:25:57.030Z,26.484
2023-12-23T11:30:57.279Z,12.872
2023-12-23T11:36:03.403Z,7.413
2023-12-23T11:40:59.942Z,3.768
2023-12-23T11:45:56.741Z,27.433
2023-12-23T11:50:57.554Z,13.68
2023-12-23T11:56:01.303Z,9.478
2023-12-23T12:01:06.075Z,5.545
2023-12-23T12:06:07.105Z,3.578
2023-12-23T12:11:09.647Z,4.038
2023-12-23T12:16:04.888Z,32.106
2023-12-23T12:21:09.176Z,28.856
2023-12-23T12:26:09.343Z,13.766
2023-12-23T12:31:09.620Z,11.194
2023-12-23T12:36:08.833Z,6.909
2023-12-23T12:41:08.832Z,7.781
2023-12-23T12:46:11.262Z,5.469
2023-12-23T12:51:09.428Z,8.507
2023-12-23T12:56:09.255Z,3.486
2023-12-23T13:01:01.798Z,4.021
2023-12-23T13:06:03.746Z,11.118
2023-12-23T13:11:03.706Z,5.956
2023-12-23T13:16:00.229Z,4.044
2023-12-23T13:20:58.964Z,6.205
2023-12-23T13:25:56.141Z,4.818
2023-12-23T13:30:52.962Z,3.805
2023-12-23T13:35:53.386Z,3.037
2023-12-23T13:40:53.119Z,1.786
2023-12-23T13:45:54.464Z,1.949
2023-12-23T13:50:58.418Z,2.5
2023-12-23T13:55:54.593Z,2.225
2023-12-23T14:00:57.251Z,1.006
2023-12-23T14:05:56.587Z,3.259
2023-12-23T14:10:57.780Z,2.219
2023-12-23T14:15:52.989Z,1.137
2023-12-23T14:20:56.262Z,2.283
2023-12-23T14:25:55.060Z,0.947
2023-12-23T14:30:57.597Z,3.303
2023-12-23T14:35:59.333Z,2.571
2023-12-23T14:40:56.048Z,10.17
2023-12-23T14:45:57.120Z,6.743
2023-12-23T14:50:57.723Z,6.427
2023-12-23T14:55:53.389Z,9.086
2023-12-23T15:00:53.962Z,7.949
2023-12-23T15:05:54.754Z,11.508
2023-12-23T15:10:54.707Z,4.115
2023-12-23T15:15:54.173Z,5.198
2023-12-23T15:20:51.820Z,6.341
2023-12-23T15:25:51.992Z,12.531
2023-12-23T15:30:59.070Z,14.46
2023-12-23T15:35:54.166Z,15.537
2023-12-23T15:40:53.232Z,14.509
2023-12-23T15:45:51.511Z,13.919
2023-12-23T15:50:52.167Z,10.615
2023-12-23T15:55:53.289Z,6.796
2023-12-23T16:00:51.221Z,8.73
2023-12-23T16:05:52.167Z,13.269
2023-12-23T16:10:49.592Z,12.575
2023-12-23T16:15:53.208Z,9.012
2023-12-23T16:21:00.309Z,10.593
2023-12-23T16:26:09.239Z,9.623
2023-12-23T16:31:03.736Z,9.32
2023-12-23T16:35:58.759Z,13.518
2023-12-23T16:41:02.626Z,21.157
2023-12-23T16:46:03.069Z,13.225
2023-12-23T16:50:58.800Z,8.994
2023-12-23T16:56:09.584Z,6.563
2023-12-23T17:01:05.107Z,11.935
2023-12-23T17:06:06.089Z,11.655
2023-12-23T17:11:02.324Z,11.324
2023-12-23T17:16:02.603Z,16.161
2023-12-23T17:21:02.374Z,14.358
2023-12-23T17:26:01.833Z,30.06
2023-12-23T17:31:03.006Z,21.544
2023-12-23T17:36:05.778Z,29.604
2023-12-23T17:40:55.264Z,25.288
2023-12-23T17:45:54.942Z,21.327
2023-12-23T17:50:52.124Z,19.778
2023-12-23T17:55:53.387Z,11.433
2023-12-23T18:00:57.748Z,12.613
2023-12-23T18:05:51.880Z,13.295
2023-12-23T18:10:50.921Z,11.361
2023-12-23T18:15:57.087Z,10.522
2023-12-23T18:21:12.600Z,7.56
2023-12-23T18:25:58.604Z,9.78
2023-12-23T18:31:02.522Z,8.29
2023-12-23T18:36:06.147Z,9.373
2023-12-23T18:40:53.766Z,9.384
2023-12-23T18:45:56.825Z,6.134
2023-12-23T18:50:53.194Z,14.958
2023-12-23T18:55:58.100Z,25.287
2023-12-23T19:00:53.558Z,10.609
2023-12-23T19:05:54.530Z,7.002
2023-12-23T19:11:10.888Z,8.339
2023-12-23T19:15:55.049Z,8.431
2023-12-23T19:20:56.125Z,3.67
2023-12-23T19:25:52.475Z,6.319
2023-12-23T19:30:55.432Z,10.89
2023-12-23T19:35:53.677Z,6.763
2023-12-23T19:40:54.814Z,9.205
2023-12-23T19:45:52.650Z,7.327
2023-12-23T19:50:53.174Z,7.873
2023-12-23T19:55:52.111Z,21.128
2023-12-23T20:00:57.263Z,22.038
2023-12-23T20:05:53.715Z,9.829
2023-12-23T20:10:51.770Z,15.212
2023-12-23T20:15:54.281Z,19.359
2023-12-23T20:20:52.691Z,10.999
2023-12-23T20:25:51.412Z,10.018
2023-12-23T20:30:58.096Z,7.077
2023-12-23T20:36:09.008Z,7.619
2023-12-23T20:41:08.629Z,6.076
2023-12-23T20:45:59.360Z,4.39
2023-12-23T20:51:04.064Z,4.84
2023-12-23T20:56:09.257Z,5.582
2023-12-23T21:00:57.145Z,3.953
2023-12-23T21:05:55.324Z,5.587
2023-12-23T21:11:04.174Z,8.458
2023-12-23T21:15:55.273Z,5.55
2023-12-23T21:21:01.077Z,5.085
2023-12-23T21:25:59.178Z,4.282
2023-12-23T21:31:04.974Z,3.465
2023-12-23T21:35:56.947Z,6.665
2023-12-23T21:40:56.201Z,7.369
2023-12-23T21:46:04.289Z,5.691
2023-12-23T21:51:06.777Z,6.199
2023-12-23T21:55:56.357Z,5.821
2023-12-23T22:00:51.361Z,5.67
2023-12-23T22:05:53.170Z,5.019
2023-12-23T22:10:52.893Z,3.931
2023-12-23T22:15:52.896Z,2.956
2023-12-23T22:20:56.854Z,3.313
2023-12-23T22:25:50.905Z,0.487
2023-12-23T22:30:51.240Z,1.168
2023-12-23T22:35:59.041Z,1.109
2023-12-23T22:40:52.496Z,1.011
2023-12-23T22:45:54.192Z,0.919
2023-12-23T22:50:54.307Z,1.894
2023-12-23T22:55:52.637Z,1.786
2023-12-23T23:01:19.487Z,0.649
2023-12-23T23:05:55.380Z,0.974
2023-12-23T23:10:58.048Z,0.812
2023-12-23T23:15:50.755Z,1.109
2023-12-23T23:20:51.871Z,2.706
2023-12-23T23:25:50.772Z,2.539
2023-12-23T23:30:54.298Z,0.784
2023-12-23T23:35:53.119Z,5.214
2023-12-23T23:40:52.820Z,5.187
2023-12-23T23:45:55.054Z,3.249
2023-12-23T23:50:53.890Z,2.225
2023-12-23T23:55:51.676Z,1.596
